createdAt,value
2018-08-24T00:00:17.344Z,96756.86
2018-08-24T00:05:11.904Z,96759.59
2018-08-24T00:10:06.703Z,96754.20
2018-08-24T00:15:01.199Z,96736.00
2018-08-24T00:19:55.752Z,96730.73
2018-08-24T00:24:50.317Z,96727.38
2018-08-24T00:29:44.900Z,96731.31
2018-08-24T00:34:39.507Z,96725.66
2018-08-24T00:39:34.001Z,96718.20
2018-08-24T00:44:28.524Z,96710.99
2018-08-24T00:49:23.020Z,96702.52
2018-08-24T00:54:17.520Z,96701.02
2018-08-24T00:59:12.090Z,96679.81
2018-08-24T01:04:06.957Z,96673.82
2018-08-24T01:09:01.608Z,96662.24
2018-08-24T01:13:56.320Z,96641.44
2018-08-24T01:18:51.236Z,96634.22
2018-08-24T01:23:46.286Z,96630.60
2018-08-24T01:28:41.239Z,96646.06
2018-08-24T01:33:36.116Z,96633.52
2018-08-24T01:38:30.714Z,96612.39
2018-08-24T01:43:25.637Z,96614.05
2018-08-24T01:48:20.309Z,96612.45
2018-08-24T01:53:14.945Z,96626.02
2018-08-24T01:58:09.556Z,96632.97
2018-08-24T02:03:04.229Z,96627.86
2018-08-24T02:07:58.753Z,96628.80
2018-08-24T02:12:58.440Z,96640.09
2018-08-24T02:17:58.167Z,96634.46
2018-08-24T02:22:55.816Z,96625.02
2018-08-24T02:27:50.411Z,96630.67
2018-08-24T02:32:45.033Z,96635.47
2018-08-24T02:37:39.540Z,96620.84
2018-08-24T02:42:34.546Z,96631.75
2018-08-24T02:47:29.080Z,96631.22
2018-08-24T02:52:23.678Z,96627.80
2018-08-24T02:57:18.244Z,96625.41
2018-08-24T03:02:12.844Z,96623.04
2018-08-24T03:07:07.508Z,96612.75
2018-08-24T03:12:02.561Z,96608.53
2018-08-24T03:17:02.200Z,96596.08
2018-08-24T03:21:56.818Z,96600.86
2018-08-24T03:26:51.371Z,96608.83
2018-08-24T03:31:46.064Z,96624.20
2018-08-24T03:36:40.678Z,96637.52
2018-08-24T03:41:37.328Z,96627.66
2018-08-24T03:46:32.005Z,96627.04
2018-08-24T03:51:26.628Z,96631.50
2018-08-24T03:56:21.264Z,96635.47
2018-08-24T04:01:15.895Z,96645.35
2018-08-24T04:06:10.477Z,96656.25
2018-08-24T04:11:05.284Z,96667.88
2018-08-24T04:15:59.897Z,96667.63
2018-08-24T04:20:54.505Z,96670.03
2018-08-24T04:25:49.407Z,96673.69
2018-08-24T04:30:43.908Z,96677.93
2018-08-24T04:35:38.500Z,96677.39
2018-08-24T04:40:33.053Z,96674.70
2018-08-24T04:45:27.769Z,96683.73
2018-08-24T04:50:22.307Z,96676.50
2018-08-24T04:55:17.048Z,96676.22
2018-08-24T05:00:11.948Z,96683.03
2018-08-24T05:05:08.190Z,96674.06
2018-08-24T05:10:02.711Z,96680.49
2018-08-24T05:14:57.721Z,96695.64
2018-08-24T05:19:52.635Z,96695.24
2018-08-24T05:24:47.220Z,96695.05
2018-08-24T05:29:41.763Z,96704.33
2018-08-24T05:34:36.316Z,96701.98
2018-08-24T05:39:31.458Z,96708.00
2018-08-24T05:44:26.065Z,96712.52
2018-08-24T05:49:20.595Z,96715.16
2018-08-24T05:54:15.118Z,96713.45
2018-08-24T05:59:09.760Z,96710.57
2018-08-24T06:04:04.271Z,96720.45
2018-08-24T06:09:04.022Z,96714.32
2018-08-24T06:13:59.299Z,96715.66
2018-08-24T06:18:53.823Z,96711.14
2018-08-24T06:23:48.363Z,96713.50
2018-08-24T06:28:42.782Z,96719.09
2018-08-24T06:33:37.445Z,96734.19
2018-08-24T06:38:31.965Z,96729.94
2018-08-24T06:43:26.411Z,96718.77
2018-08-24T06:48:29.375Z,96725.84
2018-08-24T06:53:26.599Z,96726.20
2018-08-24T06:58:21.697Z,96727.50
2018-08-24T07:03:17.311Z,96726.79
2018-08-24T07:08:11.724Z,96726.51
2018-08-24T07:13:09.257Z,96731.09
2018-08-24T07:18:04.267Z,96730.81
2018-08-24T07:22:58.660Z,96732.88
2018-08-24T07:27:53.241Z,96740.19
2018-08-24T07:32:50.427Z,96730.03
2018-08-24T07:37:44.986Z,96740.11
2018-08-24T07:42:39.728Z,96744.00
2018-08-24T07:47:34.725Z,96738.31
2018-08-24T07:52:29.247Z,96738.90
2018-08-24T07:57:23.736Z,96744.52
2018-08-24T08:02:19.104Z,96745.20
2018-08-24T08:07:15.145Z,96755.20
2018-08-24T08:12:11.669Z,96758.70
2018-08-24T08:17:06.986Z,96760.02
2018-08-24T08:22:02.438Z,96763.46
2018-08-24T08:27:07.429Z,96767.53
2018-08-24T08:32:02.821Z,96767.53
2018-08-24T08:36:57.473Z,96761.97
2018-08-24T08:41:59.850Z,96757.41
2018-08-24T08:46:55.071Z,96753.27
2018-08-24T08:51:50.922Z,96751.56
2018-08-24T08:56:47.163Z,96748.49
2018-08-24T09:01:47.893Z,96750.36
2018-08-24T09:06:48.396Z,96757.27
2018-08-24T09:11:43.619Z,96765.77
2018-08-24T09:16:38.457Z,96775.52
2018-08-24T09:21:39.042Z,96769.16
2018-08-24T09:26:39.944Z,96769.25
2018-08-24T09:31:38.131Z,96763.07
2018-08-24T09:36:43.747Z,96760.91
2018-08-24T09:41:41.538Z,96754.98
2018-08-24T09:46:42.541Z,96745.18
2018-08-24T09:51:37.136Z,96742.08
2018-08-24T09:56:33.262Z,96725.45
2018-08-24T10:01:35.059Z,96732.48
2018-08-24T10:06:40.667Z,96724.43
2018-08-24T10:11:37.484Z,96728.48
2018-08-24T10:16:33.034Z,96711.79
2018-08-24T10:21:29.763Z,96711.17
2018-08-24T10:26:27.357Z,96706.17
2018-08-24T10:31:23.650Z,96695.58
2018-08-24T10:36:18.649Z,96689.22
2018-08-24T10:41:13.517Z,96680.23
2018-08-24T10:46:08.393Z,96673.11
2018-08-24T10:51:03.949Z,96657.33
2018-08-24T10:55:59.669Z,96647.03
2018-08-24T11:00:54.684Z,96641.43
2018-08-24T11:05:49.686Z,96647.87
2018-08-24T11:10:44.432Z,96648.12
2018-08-24T11:15:39.553Z,96642.19
2018-08-24T11:20:34.667Z,96636.25
2018-08-24T11:25:29.156Z,96627.57
2018-08-24T11:30:28.427Z,96621.06
2018-08-24T11:35:23.709Z,96617.63
2018-08-24T11:40:20.324Z,96611.95
2018-08-24T11:45:15.726Z,96608.65
2018-08-24T11:50:10.473Z,96629.58
2018-08-24T11:55:06.010Z,96625.06
2018-08-24T12:00:01.652Z,96615.13
2018-08-24T12:04:56.474Z,96616.84
2018-08-24T12:09:51.640Z,96619.98
2018-08-24T12:14:47.942Z,96620.45
2018-08-24T12:19:43.512Z,96614.20
2018-08-24T12:24:38.486Z,96610.61
2018-08-24T12:29:33.197Z,96604.30
2018-08-24T12:34:27.825Z,96595.82
2018-08-24T12:39:22.867Z,96595.10
2018-08-24T12:44:17.413Z,96587.54
2018-08-24T12:49:12.250Z,96574.70
2018-08-24T12:54:07.973Z,96581.68
2018-08-24T12:59:02.552Z,96572.58
2018-08-24T13:03:57.585Z,96557.78
2018-08-24T13:08:53.139Z,96548.98
2018-08-24T13:13:47.690Z,96547.72
2018-08-24T13:18:53.004Z,96535.48
2018-08-24T13:23:47.803Z,96524.40
2018-08-24T13:28:44.052Z,96516.84
2018-08-24T13:33:38.685Z,96514.30
2018-08-24T13:38:33.578Z,96501.86
2018-08-24T13:43:28.146Z,96494.82
2018-08-24T13:48:24.139Z,96502.94
2018-08-24T13:53:21.769Z,96490.74
2018-08-24T13:58:21.103Z,96483.88
2018-08-24T14:03:17.090Z,96478.05
2018-08-24T14:08:12.176Z,96474.91
2018-08-24T14:13:07.001Z,96479.89
2018-08-24T14:18:02.277Z,96481.66
2018-08-24T14:22:57.063Z,96482.38
2018-08-24T14:27:52.940Z,96479.03
2018-08-24T14:32:47.623Z,96463.52
2018-08-24T14:37:42.925Z,96463.40
2018-08-24T14:42:38.309Z,96462.84
2018-08-24T14:47:32.881Z,96470.56
2018-08-24T14:52:27.373Z,96473.32
2018-08-24T14:57:23.014Z,96465.55
2018-08-24T15:02:31.977Z,96483.47
2018-08-24T15:07:26.712Z,96502.20
2018-08-24T15:12:21.237Z,96513.81
2018-08-24T15:17:15.779Z,96523.99
2018-08-24T15:22:10.377Z,96530.22
2018-08-24T15:27:05.025Z,96554.20
2018-08-24T15:31:59.611Z,96564.89
2018-08-24T15:36:54.263Z,96562.94
2018-08-24T15:41:48.762Z,96577.48
2018-08-24T15:46:43.302Z,96586.80
2018-08-24T15:51:38.397Z,96592.93
2018-08-24T15:56:32.930Z,96597.64
2018-08-24T16:01:27.469Z,96612.16
2018-08-24T16:06:21.977Z,96612.92
2018-08-24T16:11:16.468Z,96616.50
2018-08-24T16:16:10.981Z,96632.47
2018-08-24T16:21:05.577Z,96645.72
2018-08-24T16:26:00.177Z,96650.09
2018-08-24T16:30:54.680Z,96676.16
2018-08-24T16:35:49.217Z,96685.25
2018-08-24T16:40:43.717Z,96694.27
2018-08-24T16:45:38.236Z,96707.67
2018-08-24T16:50:32.757Z,96698.72
2018-08-24T16:55:27.269Z,96703.36
2018-08-24T17:00:22.026Z,96693.53
2018-08-24T17:05:16.624Z,96702.82
2018-08-24T17:10:11.116Z,96709.77
2018-08-24T17:15:05.888Z,96719.98
2018-08-24T17:20:00.425Z,96719.27
2018-08-24T17:24:54.983Z,96724.31
2018-08-24T17:29:49.489Z,96729.39
2018-08-24T17:34:44.134Z,96728.66
2018-08-24T17:39:38.754Z,96733.19
2018-08-24T17:44:33.221Z,96735.02
2018-08-24T17:49:27.733Z,96753.37
2018-08-24T17:54:22.350Z,96766.62
2018-08-24T17:59:16.887Z,96764.19
2018-08-24T18:04:11.402Z,96763.40
2018-08-24T18:09:10.156Z,96762.06
2018-08-24T18:14:04.677Z,96776.41
2018-08-24T18:18:59.184Z,96787.54
2018-08-24T18:23:53.740Z,96799.24
2018-08-24T18:28:48.240Z,96801.10
2018-08-24T18:33:42.773Z,96810.95
2018-08-24T18:38:37.277Z,96824.77
2018-08-24T18:43:31.810Z,96828.48
2018-08-24T18:48:26.326Z,96827.67
2018-08-24T18:53:20.873Z,96842.83
2018-08-24T18:58:15.369Z,96842.32
2018-08-24T19:03:09.958Z,96849.97
2018-08-24T19:08:09.394Z,96857.43
2018-08-24T19:13:03.928Z,96858.20
2018-08-24T19:18:03.558Z,96861.42
2018-08-24T19:22:58.187Z,96869.91
2018-08-24T19:27:57.817Z,96871.77
2018-08-24T19:32:52.492Z,96863.80
2018-08-24T19:37:46.973Z,96875.23
2018-08-24T19:42:41.600Z,96878.14
2018-08-24T19:47:41.321Z,96879.99
2018-08-24T19:52:35.869Z,96871.78
2018-08-24T19:59:43.357Z,96874.94
2018-08-24T20:04:37.896Z,96874.41
2018-08-24T20:09:37.653Z,96870.20
2018-08-24T20:14:37.287Z,96876.82
2018-08-24T20:19:32.042Z,96869.63
2018-08-24T20:24:26.961Z,96870.98
2018-08-24T20:29:21.548Z,96866.98
2018-08-24T20:34:16.493Z,96873.36
2018-08-24T20:39:11.841Z,96865.12
2018-08-24T20:44:06.605Z,96865.39
2018-08-24T20:49:01.661Z,96857.98
2018-08-24T20:53:56.338Z,96856.91
2018-08-24T20:58:50.932Z,96856.36
2018-08-24T21:03:45.618Z,96850.02
2018-08-24T21:08:40.303Z,96842.86
2018-08-24T21:13:34.835Z,96845.52
2018-08-24T21:18:29.348Z,96848.16
2018-08-24T21:23:24.085Z,96848.42
2018-08-24T21:28:18.564Z,96849.47
2018-08-24T21:33:13.105Z,96837.52
2018-08-24T21:38:07.585Z,96841.50
2018-08-24T21:43:02.109Z,96835.93
2018-08-24T21:47:56.617Z,96835.38
2018-08-24T21:52:51.127Z,96848.14
2018-08-24T21:57:45.651Z,96860.61
2018-08-24T22:02:40.193Z,96848.39
2018-08-24T22:07:34.689Z,96855.84
2018-08-24T22:12:29.213Z,96859.00
2018-08-24T22:17:23.771Z,96849.20
2018-08-24T22:22:18.308Z,96840.70
2018-08-24T22:27:12.821Z,96838.59
2018-08-24T22:32:07.345Z,96837.25
2018-08-24T22:37:01.824Z,96821.33
2018-08-24T22:41:56.353Z,96823.17
2018-08-24T22:46:50.873Z,96818.68
2018-08-24T22:51:45.400Z,96812.84
2018-08-24T22:56:39.983Z,96809.64
2018-08-24T23:01:34.508Z,96813.39
2018-08-24T23:06:29.004Z,96815.52
2018-08-24T23:11:23.593Z,96809.93
2018-08-24T23:16:18.122Z,96816.03
2018-08-24T23:21:12.613Z,96814.98
2018-08-24T23:26:07.184Z,96804.91
2018-08-24T23:31:01.784Z,96806.50
2018-08-24T23:35:56.321Z,96818.17
2018-08-24T23:40:50.853Z,96820.05
2018-08-24T23:45:45.371Z,96819.50
2018-08-24T23:50:39.881Z,96816.08
2018-08-24T23:55:34.644Z,96805.72
